Time;durP1;ratioP1;P1;durP2;ratioP2;P2;SDS_P1;SDS_P2;PMS_P1;PMS_P2;Temp;Humidity;BMP_temperature;BMP_pressure;BME280_temperature;BME280_humidity;BME280_pressure;Samples;Min_cycle;Max_cycle;Signal;HPM_P1;HPM_P2
2022/07/06 00:01:16;;;;;;;7.85;5.60;;;15.10;99.90;;;;;;5010686;28;20025;-63
2022/07/06 00:03:42;;;;;;;7.55;5.80;;;14.90;99.90;;;;;;5012615;28;20029;-62
2022/07/06 00:06:08;;;;;;;7.28;5.18;;;14.80;99.90;;;;;;5011378;28;20026;-63
2022/07/06 00:08:33;;;;;;;7.03;5.22;;;14.70;99.90;;;;;;5011415;28;20030;-62
2022/07/06 00:11:00;;;;;;;7.35;5.10;;;14.60;99.90;;;;;;5010572;28;20608;-62
2022/07/06 00:13:26;;;;;;;8.52;5.57;;;14.40;99.90;;;;;;5011478;28;20104;-62
2022/07/06 00:15:52;;;;;;;9.07;5.70;;;14.40;99.90;;;;;;5010347;28;20037;-63
2022/07/06 00:18:18;;;;;;;8.05;4.63;;;14.50;99.90;;;;;;5011431;28;20088;-63
2022/07/06 00:20:44;;;;;;;6.68;4.82;;;14.60;99.90;;;;;;5011295;28;20042;-62
2022/07/06 00:23:10;;;;;;;6.60;4.82;;;14.70;99.90;;;;;;5011163;28;20029;-63
2022/07/06 00:25:35;;;;;;;6.65;5.38;;;14.70;99.90;;;;;;5008091;28;20030;-62
2022/07/06 00:28:01;;;;;;;10.35;5.70;;;14.80;99.90;;;;;;5012184;28;20494;-63
2022/07/06 00:30:27;;;;;;;6.80;5.05;;;14.80;99.90;;;;;;5018362;28;20109;-63
2022/07/06 00:32:53;;;;;;;6.50;5.05;;;14.80;99.90;;;;;;5027176;28;20045;-63
2022/07/06 00:35:19;;;;;;;9.90;5.30;;;14.70;99.90;;;;;;5008705;28;20064;-62
2022/07/06 00:37:44;;;;;;;10.68;5.85;;;14.60;99.90;;;;;;5029094;28;20033;-62
2022/07/06 00:40:10;;;;;;;12.27;5.50;;;14.60;99.90;;;;;;5011035;28;20092;-62
2022/07/06 00:42:44;;;;;;;7.88;5.10;;;14.40;99.90;;;;;;5024889;28;20095;-63
2022/07/06 00:45:11;;;;;;;6.30;5.13;;;14.30;99.90;;;;;;5017022;28;20120;-62
2022/07/06 00:47:37;;;;;;;9.88;5.70;;;14.10;99.90;;;;;;5024849;28;20029;-62
2022/07/06 00:50:22;;;;;;;10.82;6.13;;;14.10;99.90;;;;;;5010739;28;20168;-63
2022/07/06 00:52:53;;;;;;;7.10;5.50;;;14.10;99.90;;;;;;5010521;28;20037;-63
2022/07/06 00:55:26;;;;;;;8.00;5.18;;;14.20;99.90;;;;;;5007524;28;20057;-62
2022/07/06 00:57:52;;;;;;;7.78;5.65;;;14.00;99.90;;;;;;5008966;28;20095;-63
2022/07/06 01:00:21;;;;;;;8.00;5.93;;;14.00;99.90;;;;;;5014239;28;20029;-63
2022/07/06 01:02:47;;;;;;;6.15;4.90;;;14.00;99.90;;;;;;5010271;28;20076;-63
2022/07/06 01:05:14;;;;;;;9.20;5.40;;;14.00;99.90;;;;;;5010598;28;20041;-63
2022/07/06 01:07:42;;;;;;;9.13;6.53;;;14.00;99.90;;;;;;5009327;28;20474;-63
2022/07/06 01:10:10;;;;;;;7.75;5.60;;;14.00;99.90;;;;;;5008739;28;20034;-62
2022/07/06 01:12:38;;;;;;;8.88;5.68;;;13.80;99.90;;;;;;5009554;28;20088;-63
2022/07/06 01:15:06;;;;;;;8.85;5.80;;;13.60;99.90;;;;;;5008161;28;20077;-63
2022/07/06 01:17:33;;;;;;;9.45;6.47;;;13.50;99.90;;;;;;5009186;28;20042;-62
2022/07/06 01:20:05;;;;;;;9.10;5.30;;;13.50;99.90;;;;;;5021991;28;20112;-63
2022/07/06 01:22:31;;;;;;;11.88;6.10;;;13.50;99.90;;;;;;5012123;28;20033;-63
2022/07/06 01:24:56;;;;;;;8.77;5.97;;;13.50;99.90;;;;;;5006920;28;20038;-63
2022/07/06 01:27:22;;;;;;;9.35;6.13;;;13.40;99.90;;;;;;5007810;28;20029;-63
2022/07/06 01:29:47;;;;;;;9.23;6.30;;;13.50;99.90;;;;;;5026991;28;20117;-62
2022/07/06 01:32:13;;;;;;;8.90;5.75;;;13.50;99.90;;;;;;5013737;28;20041;-62
2022/07/06 01:34:40;;;;;;;10.90;6.20;;;13.60;99.90;;;;;;5009064;28;20029;-62
2022/07/06 01:37:06;;;;;;;8.85;6.32;;;13.60;99.90;;;;;;5007309;28;20030;-63
2022/07/06 01:39:31;;;;;;;8.38;6.20;;;13.60;99.90;;;;;;5016341;28;20229;-62
2022/07/06 01:41:57;;;;;;;9.30;6.05;;;13.50;99.90;;;;;;5023919;28;20359;-62
2022/07/06 01:44:23;;;;;;;8.02;6.28;;;13.40;99.90;;;;;;5007998;28;20109;-63
2022/07/06 01:46:48;;;;;;;9.63;6.07;;;13.50;99.90;;;;;;5008776;28;20039;-63
2022/07/06 01:49:14;;;;;;;8.90;6.00;;;13.40;99.90;;;;;;5010453;28;20030;-63
2022/07/06 01:51:40;;;;;;;8.35;5.80;;;13.30;99.90;;;;;;5011812;28;20084;-63
2022/07/06 01:54:05;;;;;;;8.65;6.00;;;13.40;99.90;;;;;;5009177;28;20052;-62
2022/07/06 01:56:31;;;;;;;11.27;6.90;;;13.50;99.90;;;;;;5007713;28;20041;-62
2022/07/06 01:58:57;;;;;;;8.45;6.20;;;13.50;99.90;;;;;;5007524;28;20069;-63
2022/07/06 02:01:23;;;;;;;9.05;5.90;;;13.30;99.90;;;;;;5007154;28;20021;-63
2022/07/06 02:03:49;;;;;;;8.40;6.05;;;13.20;99.90;;;;;;5010474;28;20062;-63
2022/07/06 02:06:15;;;;;;;9.73;6.47;;;13.10;99.90;;;;;;5007537;28;20121;-63
2022/07/06 02:08:42;;;;;;;11.23;6.07;;;13.10;99.90;;;;;;5028321;28;20116;-62
2022/07/06 02:11:08;;;;;;;11.63;6.68;;;13.20;99.90;;;;;;5021531;28;20030;-63
2022/07/06 02:13:35;;;;;;;8.82;6.13;;;13.30;99.90;;;;;;5020367;28;20117;-63
2022/07/06 02:16:01;;;;;;;8.75;6.25;;;13.30;99.90;;;;;;5008071;28;20137;-63
2022/07/06 02:18:27;;;;;;;10.85;6.18;;;13.20;99.90;;;;;;5008949;28;20045;-62
2022/07/06 02:20:53;;;;;;;8.48;5.57;;;13.20;99.90;;;;;;5008723;28;20030;-63
2022/07/06 02:23:18;;;;;;;12.55;6.30;;;13.30;99.90;;;;;;5019982;28;20124;-62
2022/07/06 02:25:44;;;;;;;9.93;5.65;;;13.30;99.90;;;;;;5014814;28;20144;-63
2022/07/06 02:28:10;;;;;;;9.20;6.07;;;13.30;99.90;;;;;;5004507;28;20034;-63
2022/07/06 02:30:35;;;;;;;8.43;5.63;;;13.20;99.90;;;;;;5006328;28;20126;-63
2022/07/06 02:33:01;;;;;;;9.68;6.32;;;13.20;99.90;;;;;;5019650;28;20030;-63
2022/07/06 02:35:27;;;;;;;13.40;6.53;;;13.20;99.90;;;;;;5011305;28;20022;-63
2022/07/06 02:37:52;;;;;;;9.27;5.88;;;13.20;99.90;;;;;;5008222;28;20510;-63
2022/07/06 02:40:18;;;;;;;11.50;6.57;;;13.20;99.90;;;;;;5012427;28;20737;-63
2022/07/06 02:42:44;;;;;;;7.80;5.78;;;13.10;99.90;;;;;;5014190;28;20871;-63
2022/07/06 02:45:10;;;;;;;9.38;6.18;;;13.10;99.90;;;;;;5020937;28;20061;-62
2022/07/06 02:47:37;;;;;;;10.60;5.85;;;13.00;99.90;;;;;;5012298;28;20523;-62
2022/07/06 02:50:03;;;;;;;9.32;6.72;;;12.90;99.90;;;;;;5019021;28;20029;-62
2022/07/06 02:52:28;;;;;;;9.68;6.13;;;12.90;99.90;;;;;;5006720;28;20356;-63
2022/07/06 02:54:54;;;;;;;9.52;6.05;;;12.90;99.90;;;;;;5005912;28;20064;-62
2022/07/06 02:57:20;;;;;;;8.27;5.93;;;12.90;99.90;;;;;;5005590;28;20042;-63
2022/07/06 02:59:46;;;;;;;8.30;5.63;;;12.90;99.90;;;;;;5005051;28;20041;-63
2022/07/06 03:02:12;;;;;;;7.85;5.70;;;12.80;99.90;;;;;;5014749;28;20034;-62
2022/07/06 03:04:38;;;;;;;7.40;5.88;;;12.70;99.90;;;;;;5016157;28;20026;-62
2022/07/06 03:07:04;;;;;;;7.93;6.10;;;12.70;99.90;;;;;;5008682;28;20034;-63
2022/07/06 03:09:29;;;;;;;8.63;6.30;;;12.70;99.90;;;;;;5006240;28;20037;-62
2022/07/06 03:11:55;;;;;;;11.63;6.53;;;12.80;99.90;;;;;;5008255;28;20029;-63
2022/07/06 03:14:21;;;;;;;8.73;6.28;;;12.90;99.90;;;;;;5007987;28;20030;-63
2022/07/06 03:16:46;;;;;;;8.50;5.97;;;12.90;99.90;;;;;;5008353;28;20064;-62
2022/07/06 03:19:12;;;;;;;8.57;6.25;;;12.90;99.90;;;;;;5019971;28;20080;-62
2022/07/06 03:21:38;;;;;;;8.85;6.22;;;12.80;99.90;;;;;;5010772;28;20367;-62
2022/07/06 03:24:04;;;;;;;9.38;6.80;;;12.80;99.90;;;;;;5018608;28;20039;-62
2022/07/06 03:26:30;;;;;;;9.27;7.18;;;12.80;99.90;;;;;;5020337;28;20537;-62
2022/07/06 03:28:55;;;;;;;9.98;6.85;;;12.90;99.90;;;;;;5027008;28;20121;-62
2022/07/06 03:31:21;;;;;;;9.77;6.97;;;12.90;99.90;;;;;;5012445;28;20485;-62
2022/07/06 03:33:46;;;;;;;9.57;6.63;;;13.00;99.90;;;;;;5007765;28;20029;-62
2022/07/06 03:36:12;;;;;;;8.40;6.30;;;13.00;99.90;;;;;;5013502;28;20458;-62
2022/07/06 03:38:38;;;;;;;13.27;6.00;;;13.00;99.90;;;;;;5007482;28;20038;-62
2022/07/06 03:41:04;;;;;;;10.43;6.30;;;12.90;99.90;;;;;;5008909;28;20029;-62
2022/07/06 03:43:30;;;;;;;9.75;6.45;;;12.80;99.90;;;;;;5006782;28;20137;-62
2022/07/06 03:45:56;;;;;;;10.20;6.32;;;12.80;99.90;;;;;;5017297;28;20485;-62
2022/07/06 03:48:22;;;;;;;9.52;6.90;;;12.70;99.90;;;;;;5010800;28;20497;-62
2022/07/06 03:50:47;;;;;;;8.57;6.07;;;12.80;99.90;;;;;;5006851;28;20025;-63
2022/07/06 03:53:13;;;;;;;8.68;6.03;;;12.80;99.90;;;;;;5008408;28;20034;-62
2022/07/06 03:55:39;;;;;;;8.73;6.13;;;12.70;99.90;;;;;;5017923;28;20092;-63
2022/07/06 03:58:04;;;;;;;8.15;5.95;;;12.70;99.90;;;;;;5017407;28;20061;-63
2022/07/06 04:00:30;;;;;;;10.93;7.03;;;12.70;99.90;;;;;;5020488;28;20025;-62
2022/07/06 04:02:55;;;;;;;13.20;6.97;;;12.70;99.90;;;;;;5022385;28;20167;-62
2022/07/06 04:05:22;;;;;;;10.32;6.63;;;12.80;99.90;;;;;;5010773;28;20103;-62
2022/07/06 04:07:48;;;;;;;11.65;6.38;;;12.80;99.90;;;;;;5009579;28;20644;-63
2022/07/06 04:10:16;;;;;;;11.73;6.88;;;12.90;99.90;;;;;;5017897;28;20033;-63
2022/07/06 04:12:45;;;;;;;11.02;6.57;;;13.00;99.90;;;;;;5007988;28;20030;-63
2022/07/06 04:15:11;;;;;;;8.32;5.97;;;13.00;99.90;;;;;;5010409;28;20053;-62
2022/07/06 04:17:53;;;;;;;9.05;6.80;;;12.90;99.90;;;;;;5001296;28;20039;-62
2022/07/06 04:20:20;;;;;;;10.77;7.07;;;13.00;99.90;;;;;;4998053;28;20880;-62
2022/07/06 04:22:45;;;;;;;9.88;6.30;;;13.00;99.90;;;;;;5031006;28;20040;-63
2022/07/06 04:25:11;;;;;;;13.30;6.20;;;13.10;99.90;;;;;;5031829;28;20029;-63
2022/07/06 04:27:37;;;;;;;10.25;6.32;;;13.20;99.90;;;;;;5017977;28;20022;-63
2022/07/06 04:30:04;;;;;;;8.75;6.10;;;13.10;99.90;;;;;;5011476;28;20030;-62
2022/07/06 04:32:30;;;;;;;9.98;6.95;;;13.30;99.90;;;;;;5011398;28;20039;-63
2022/07/06 04:34:56;;;;;;;11.63;6.43;;;13.40;99.90;;;;;;5011875;28;20026;-62
2022/07/06 04:37:21;;;;;;;9.52;6.93;;;13.30;99.90;;;;;;5011773;28;20032;-63
2022/07/06 04:39:47;;;;;;;8.85;5.93;;;13.40;99.90;;;;;;5010707;28;20670;-63
2022/07/06 04:42:13;;;;;;;9.50;6.90;;;13.50;99.90;;;;;;5010700;28;20029;-63
2022/07/06 04:44:38;;;;;;;7.78;6.13;;;13.70;99.90;;;;;;5010390;28;20052;-63
2022/07/06 04:47:04;;;;;;;9.60;6.53;;;13.90;99.90;;;;;;5011823;28;20493;-62
2022/07/06 04:49:30;;;;;;;8.75;6.15;;;14.00;99.90;;;;;;5011513;28;20104;-62
2022/07/06 04:51:55;;;;;;;10.88;6.28;;;14.10;99.90;;;;;;5011377;28;20102;-63
2022/07/06 04:54:21;;;;;;;9.02;6.28;;;14.20;99.90;;;;;;5010922;28;20053;-62
2022/07/06 04:56:47;;;;;;;12.32;7.28;;;14.10;99.90;;;;;;4998494;28;20053;-63
2022/07/06 04:59:13;;;;;;;8.82;6.63;;;14.30;99.90;;;;;;5011470;28;20088;-62
2022/07/06 05:01:40;;;;;;;10.90;6.78;;;14.70;99.90;;;;;;5010335;28;20033;-63
2022/07/06 05:04:06;;;;;;;9.52;6.65;;;14.90;99.90;;;;;;5011248;28;20044;-63
2022/07/06 05:06:32;;;;;;;10.27;6.60;;;15.10;99.90;;;;;;5010772;28;20022;-63
2022/07/06 05:08:59;;;;;;;10.55;6.35;;;15.20;99.90;;;;;;5008141;28;20088;-62
2022/07/06 05:11:28;;;;;;;12.00;6.35;;;15.40;99.90;;;;;;5012727;28;20030;-62
2022/07/06 05:13:54;;;;;;;11.20;6.13;;;15.60;99.90;;;;;;5009501;28;20041;-62
2022/07/06 05:16:20;;;;;;;9.45;6.50;;;15.70;99.90;;;;;;5011087;28;20031;-62
2022/07/06 05:18:46;;;;;;;10.43;6.55;;;15.80;99.90;;;;;;5007886;28;20046;-62
2022/07/06 05:21:12;;;;;;;8.57;6.20;;;15.80;99.90;;;;;;5009819;28;20040;-62
2022/07/06 05:23:37;;;;;;;8.25;6.32;;;15.80;99.90;;;;;;5013735;28;20030;-62
2022/07/06 05:26:03;;;;;;;9.45;6.97;;;15.80;99.90;;;;;;5009432;28;20459;-62
2022/07/06 05:28:29;;;;;;;10.30;7.47;;;15.80;99.90;;;;;;5008309;28;20474;-62
2022/07/06 05:30:54;;;;;;;11.45;7.00;;;15.80;99.90;;;;;;5010213;28;20058;-62
2022/07/06 05:33:20;;;;;;;15.93;6.93;;;15.70;99.90;;;;;;5009615;28;20025;-62
2022/07/06 05:35:46;;;;;;;10.75;7.55;;;15.80;99.90;;;;;;5028586;28;20047;-62
2022/07/06 05:38:11;;;;;;;9.40;7.10;;;15.80;99.90;;;;;;5026627;28;20033;-62
2022/07/06 05:40:37;;;;;;;11.65;7.32;;;15.90;99.90;;;;;;5010656;28;20060;-62
2022/07/06 05:43:03;;;;;;;10.45;7.45;;;16.00;99.90;;;;;;5018118;28;20030;-62
2022/07/06 05:45:28;;;;;;;10.02;7.00;;;16.00;99.90;;;;;;5018923;28;20041;-62
2022/07/06 05:50:39;;;;;;;9.82;7.13;;;16.10;99.90;;;;;;5005360;28;20036;-62
2022/07/06 05:53:05;;;;;;;11.48;6.90;;;16.20;99.90;;;;;;5010649;28;20036;-62
2022/07/06 05:55:32;;;;;;;12.82;7.22;;;16.10;99.90;;;;;;5010467;28;20133;-62
2022/07/06 05:57:57;;;;;;;8.85;6.78;;;16.20;99.90;;;;;;5008862;28;20046;-62
2022/07/06 06:00:24;;;;;;;11.55;7.05;;;16.30;99.90;;;;;;5010531;28;20425;-62
2022/07/06 06:02:51;;;;;;;9.15;6.57;;;16.40;99.90;;;;;;5009614;28;20435;-62
2022/07/06 06:05:18;;;;;;;8.88;6.13;;;16.50;99.90;;;;;;5010273;28;20065;-62
2022/07/06 06:07:46;;;;;;;12.18;7.03;;;16.50;99.90;;;;;;5009481;28;20136;-62
2022/07/06 06:10:13;;;;;;;10.45;6.45;;;16.60;99.90;;;;;;5010095;28;20036;-62
2022/07/06 06:12:40;;;;;;;10.05;6.70;;;16.80;99.90;;;;;;5006245;28;20811;-62
2022/07/06 06:15:06;;;;;;;11.77;6.07;;;17.00;99.90;;;;;;5009721;28;20355;-62
2022/07/06 06:17:32;;;;;;;12.40;6.15;;;17.10;99.90;;;;;;5009171;28;20100;-62
2022/07/06 06:19:59;;;;;;;10.30;6.10;;;17.30;99.90;;;;;;5009500;28;20026;-62
2022/07/06 06:22:25;;;;;;;8.68;5.68;;;17.40;99.90;;;;;;5010034;28;20788;-62
2022/07/06 06:24:51;;;;;;;9.25;5.60;;;17.40;99.90;;;;;;5008640;28;20402;-62
2022/07/06 06:27:16;;;;;;;11.15;5.90;;;17.40;99.90;;;;;;5008918;28;20038;-63
2022/07/06 06:29:44;;;;;;;7.85;5.38;;;17.50;99.90;;;;;;5008162;28;20018;-62
2022/07/06 06:32:13;;;;;;;8.88;5.18;;;17.70;99.90;;;;;;5009812;28;20481;-62
2022/07/06 06:34:39;;;;;;;7.45;5.60;;;17.90;99.90;;;;;;5008576;28;20022;-62
2022/07/06 06:37:05;;;;;;;7.82;4.60;;;18.00;99.90;;;;;;5009973;28;20100;-62
2022/07/06 06:39:31;;;;;;;4.72;4.15;;;18.20;99.90;;;;;;5009722;28;20128;-62
2022/07/06 06:41:57;;;;;;;10.18;4.40;;;18.50;99.90;;;;;;5008959;28;20053;-62
2022/07/06 06:44:23;;;;;;;6.72;4.50;;;18.60;99.90;;;;;;5008714;28;20025;-63
2022/07/06 06:46:50;;;;;;;8.48;3.38;;;18.70;99.90;;;;;;5009138;28;20030;-62
2022/07/06 06:49:16;;;;;;;7.25;4.20;;;18.70;99.90;;;;;;5009681;28;20068;-63
2022/07/06 06:51:41;;;;;;;7.55;4.63;;;18.90;99.90;;;;;;4993198;28;20069;-63
2022/07/06 06:54:07;;;;;;;6.82;4.63;;;18.90;99.90;;;;;;5019185;28;20056;-62
2022/07/06 06:56:33;;;;;;;6.38;4.07;;;18.80;99.90;;;;;;5009518;28;20038;-63
2022/07/06 06:58:58;;;;;;;12.50;4.10;;;18.80;99.90;;;;;;5009718;28;20140;-62
2022/07/06 07:01:24;;;;;;;8.32;4.38;;;18.90;99.90;;;;;;5009358;28;20111;-63
2022/07/06 07:03:54;;;;;;;6.78;4.55;;;19.20;99.90;;;;;;5005105;28;20467;-62
2022/07/06 07:06:20;;;;;;;6.80;4.22;;;19.20;99.90;;;;;;5007123;28;20471;-62
2022/07/06 07:08:46;;;;;;;5.82;3.78;;;19.20;99.90;;;;;;5009017;28;20048;-62
2022/07/06 07:11:12;;;;;;;6.65;3.78;;;19.30;99.90;;;;;;5001310;28;20030;-63
2022/07/06 07:13:38;;;;;;;4.78;3.80;;;19.60;99.90;;;;;;5004123;28;20033;-63
2022/07/06 07:16:04;;;;;;;4.88;4.07;;;19.80;99.90;;;;;;4995027;28;20031;-63
2022/07/06 07:18:29;;;;;;;6.50;4.25;;;19.90;99.90;;;;;;4989830;28;20094;-63
2022/07/06 07:20:55;;;;;;;10.60;4.07;;;20.00;99.90;;;;;;4988916;28;20422;-62
2022/07/06 07:23:21;;;;;;;6.93;4.00;;;20.00;99.90;;;;;;4989254;28;20467;-62
2022/07/06 07:25:46;;;;;;;7.47;4.10;;;20.10;99.90;;;;;;4988951;28;20134;-63
2022/07/06 07:28:12;;;;;;;7.75;3.97;;;20.20;99.90;;;;;;5000660;28;20029;-62
2022/07/06 07:30:38;;;;;;;8.50;4.22;;;20.40;99.90;;;;;;5007464;28;20053;-63
2022/07/06 07:33:03;;;;;;;8.15;4.20;;;20.60;99.90;;;;;;5009065;28;20022;-63
2022/07/06 07:35:29;;;;;;;4.72;4.03;;;20.70;99.90;;;;;;5008470;28;20030;-63
2022/07/06 07:37:55;;;;;;;6.75;4.65;;;20.70;99.90;;;;;;5012168;28;20042;-62
2022/07/06 07:40:21;;;;;;;7.53;4.10;;;20.80;99.90;;;;;;5013066;28;20060;-62
2022/07/06 07:42:47;;;;;;;5.53;3.63;;;20.90;99.90;;;;;;5011813;28;20034;-63
2022/07/06 07:45:13;;;;;;;4.20;3.50;;;21.10;99.90;;;;;;5012938;28;20076;-63
2022/07/06 07:47:39;;;;;;;6.13;3.90;;;21.20;99.90;;;;;;5011014;28;20032;-63
2022/07/06 07:50:06;;;;;;;7.75;4.18;;;21.10;99.90;;;;;;5012422;28;20069;-62
2022/07/06 07:52:32;;;;;;;8.90;3.95;;;21.20;99.90;;;;;;5012525;28;20378;-63
2022/07/06 07:54:57;;;;;;;4.95;3.67;;;21.20;99.90;;;;;;5010511;28;20148;-63
2022/07/06 07:57:23;;;;;;;10.23;4.07;;;21.20;99.90;;;;;;5012588;28;20026;-63
2022/07/06 07:59:49;;;;;;;7.35;4.05;;;21.10;99.70;;;;;;5010709;28;20433;-63
2022/07/06 08:02:14;;;;;;;5.13;3.83;;;21.00;98.70;;;;;;5012352;28;20490;-63
2022/07/06 08:04:40;;;;;;;6.85;3.92;;;21.00;99.20;;;;;;5012253;28;20033;-63
2022/07/06 08:07:06;;;;;;;8.18;3.92;;;21.20;98.90;;;;;;5012188;28;20378;-63
2022/07/06 08:09:32;;;;;;;9.02;4.20;;;21.40;99.80;;;;;;5012721;28;20120;-62
2022/07/06 08:11:58;;;;;;;5.68;4.00;;;21.60;99.20;;;;;;5011871;28;20026;-64
2022/07/06 08:14:24;;;;;;;5.00;4.18;;;21.60;99.90;;;;;;5011297;28;20368;-63
2022/07/06 08:16:50;;;;;;;6.32;4.22;;;21.70;99.90;;;;;;5011226;28;20076;-63
2022/07/06 08:19:15;;;;;;;4.70;3.75;;;21.90;99.90;;;;;;5010528;28;20533;-63
2022/07/06 08:21:41;;;;;;;6.72;4.60;;;22.00;97.60;;;;;;5011917;28;20029;-63
2022/07/06 08:24:08;;;;;;;9.43;4.60;;;21.90;99.10;;;;;;5011742;28;20124;-63
2022/07/06 08:26:33;;;;;;;7.63;4.10;;;21.90;97.90;;;;;;5012265;28;20080;-63
2022/07/06 08:29:00;;;;;;;5.80;3.75;;;21.90;96.40;;;;;;5011391;28;20050;-63
2022/07/06 08:31:27;;;;;;;7.25;4.03;;;22.00;99.00;;;;;;5011659;28;20038;-63
2022/07/06 08:33:53;;;;;;;18.85;4.32;;;22.00;97.20;;;;;;5010363;28;20061;-63
2022/07/06 08:36:20;;;;;;;7.05;4.00;;;22.00;99.10;;;;;;5011689;28;20026;-63
2022/07/06 08:38:46;;;;;;;8.85;4.30;;;22.30;99.90;;;;;;5011050;28;20092;-63
2022/07/06 08:41:14;;;;;;;6.82;3.90;;;22.00;97.00;;;;;;5011948;28;20360;-63
2022/07/06 08:43:40;;;;;;;7.05;4.07;;;21.70;97.70;;;;;;5011756;28;20045;-63
2022/07/06 08:46:07;;;;;;;6.55;4.20;;;22.00;99.10;;;;;;5010991;28;20029;-63
2022/07/06 08:48:36;;;;;;;4.88;4.00;;;22.30;98.30;;;;;;5010444;28;20034;-63
2022/07/06 08:51:04;;;;;;;6.93;4.00;;;22.40;97.70;;;;;;5010000;28;20036;-64
2022/07/06 08:53:30;;;;;;;7.95;4.40;;;22.40;97.60;;;;;;5008578;28;20457;-63
2022/07/06 08:55:56;;;;;;;7.50;4.20;;;22.20;96.70;;;;;;5010816;28;20125;-63
2022/07/06 08:58:27;;;;;;;6.40;3.70;;;22.30;96.00;;;;;;5011477;28;20045;-63
2022/07/06 09:00:54;;;;;;;6.75;4.07;;;22.30;95.70;;;;;;5010688;28;20524;-63
2022/07/06 09:03:20;;;;;;;5.18;3.47;;;22.20;98.70;;;;;;5010339;28;20048;-63
2022/07/06 09:05:46;;;;;;;8.05;4.47;;;22.30;97.30;;;;;;5010961;28;20733;-63
2022/07/06 09:08:13;;;;;;;5.50;3.97;;;22.40;98.50;;;;;;5011217;28;20033;-64
2022/07/06 09:10:38;;;;;;;11.05;4.03;;;22.60;94.80;;;;;;5011100;28;20117;-63
2022/07/06 09:13:06;;;;;;;8.20;3.75;;;22.80;95.90;;;;;;5009533;28;20097;-63
2022/07/06 09:15:35;;;;;;;11.10;3.90;;;23.10;97.60;;;;;;5011237;28;20033;-64
2022/07/06 09:18:03;;;;;;;7.03;3.57;;;23.20;92.80;;;;;;5010132;28;20124;-64
2022/07/06 09:20:29;;;;;;;7.32;3.90;;;23.40;94.40;;;;;;5011206;28;20080;-63
2022/07/06 09:23:00;;;;;;;6.20;3.70;;;23.40;94.70;;;;;;5010214;28;20048;-64
2022/07/06 09:25:26;;;;;;;10.00;3.42;;;23.70;95.40;;;;;;5010642;28;20038;-63
2022/07/06 09:27:54;;;;;;;10.75;3.63;;;23.60;93.00;;;;;;5009467;28;20026;-64
2022/07/06 09:30:21;;;;;;;10.98;3.83;;;23.60;93.30;;;;;;5011054;28;20124;-64
2022/07/06 09:32:50;;;;;;;4.43;3.55;;;23.40;93.80;;;;;;5010551;28;20034;-64
2022/07/06 09:35:22;;;;;;;5.78;3.88;;;23.40;93.70;;;;;;5010812;28;20040;-64
2022/07/06 09:38:00;;;;;;;4.88;3.92;;;23.60;91.10;;;;;;5009218;28;20038;-64
2022/07/06 09:40:26;;;;;;;10.77;4.93;;;23.20;93.70;;;;;;4991000;28;20379;-64
2022/07/06 09:43:06;;;;;;;8.73;4.45;;;22.30;95.10;;;;;;4989895;28;20041;-64
2022/07/06 09:45:33;;;;;;;;;;;22.00;97.50;;;;;;4991572;28;20061;-64
2022/07/06 09:48:15;;;;;;;9.50;4.13;;;22.50;97.00;;;;;;4990008;28;19905;-62
2022/07/06 09:50:45;;;;;;;6.65;4.57;;;23.00;95.40;;;;;;4990999;28;20386;-64
2022/07/06 09:53:12;;;;;;;9.15;4.50;;;22.90;95.50;;;;;;4993913;28;20128;-64
2022/07/06 09:55:38;;;;;;;11.07;4.88;;;22.50;97.20;;;;;;5010520;28;20066;-63
2022/07/06 09:58:04;;;;;;;6.53;4.80;;;22.00;98.80;;;;;;5009301;28;20069;-64
2022/07/06 10:00:30;;;;;;;6.72;4.32;;;22.20;99.00;;;;;;5009769;28;20522;-63
2022/07/06 10:02:56;;;;;;;8.40;4.40;;;22.40;97.00;;;;;;5009399;28;20114;-63
2022/07/06 10:05:29;;;;;;;5.90;4.50;;;22.50;96.60;;;;;;5010169;28;20044;-63
2022/07/06 10:07:59;;;;;;;8.38;4.43;;;22.40;97.80;;;;;;5008806;28;20064;-63
2022/07/06 10:10:29;;;;;;;10.38;4.70;;;22.20;97.60;;;;;;5010213;28;20073;-63
2022/07/06 10:12:57;;;;;;;6.32;4.35;;;22.40;98.20;;;;;;5009592;28;20578;-63
2022/07/06 10:15:26;;;;;;;6.90;4.30;;;22.90;99.10;;;;;;5010191;28;20026;-64
2022/07/06 10:17:53;;;;;;;7.18;4.13;;;22.90;95.60;;;;;;5009062;28;20057;-66
2022/07/06 10:20:19;;;;;;;7.60;5.03;;;22.60;95.80;;;;;;5010260;28;20074;-64
2022/07/06 10:22:49;;;;;;;8.05;4.60;;;22.10;97.00;;;;;;5008778;28;20072;-64
2022/07/06 10:25:17;;;;;;;8.15;5.00;;;21.70;96.90;;;;;;5009586;28;20111;-63
2022/07/06 10:27:44;;;;;;;9.52;4.82;;;21.60;97.20;;;;;;5009820;28;20030;-63
2022/07/06 10:30:11;;;;;;;12.18;4.90;;;21.70;99.00;;;;;;5009208;28;20102;-65
2022/07/06 10:32:39;;;;;;;9.50;4.53;;;21.80;97.00;;;;;;5009848;28;20083;-63
2022/07/06 10:35:05;;;;;;;9.15;4.35;;;21.70;97.40;;;;;;5009155;28;20037;-63
2022/07/06 10:37:32;;;;;;;9.23;4.85;;;21.60;98.00;;;;;;5008395;28;20025;-63
2022/07/06 10:43:00;;;;;;;6.70;4.28;;;21.40;97.60;;;;;;5009746;28;20485;-63
2022/07/06 10:45:29;;;;;;;9.10;4.82;;;21.80;99.40;;;;;;4998214;28;20673;-64
2022/07/06 10:48:15;;;;;;;14.35;4.57;;;22.70;98.40;;;;;;4989595;28;20465;-63
2022/07/06 10:50:41;;;;;;;11.07;4.10;;;23.20;97.00;;;;;;4990002;28;20038;-63
2022/07/06 10:53:12;;;;;;;8.25;3.92;;;23.60;94.10;;;;;;5000106;28;20048;-63
2022/07/06 10:55:40;;;;;;;6.85;4.72;;;24.10;96.70;;;;;;5007733;28;20065;-63
2022/07/06 10:58:06;;;;;;;7.22;3.78;;;24.50;94.40;;;;;;5008703;28;20048;-63
2022/07/06 11:00:54;;;;;;;20.27;3.90;;;23.90;93.80;;;;;;5009467;28;20065;-64
2022/07/06 11:03:56;;;;;;;6.13;4.07;;;23.50;93.20;;;;;;5009480;28;20036;-63
2022/07/06 11:06:24;;;;;;;6.78;4.00;;;23.10;94.70;;;;;;5008516;28;20084;-64
2022/07/06 11:08:54;;;;;;;7.53;4.25;;;22.80;92.80;;;;;;5008589;28;20087;-63
2022/07/06 11:11:37;;;;;;;9.60;4.05;;;22.30;94.40;;;;;;5011145;28;20034;-63
2022/07/06 11:14:09;;;;;;;9.93;3.80;;;22.10;96.10;;;;;;5012853;28;20048;-63
2022/07/06 11:16:38;;;;;;;10.73;4.07;;;22.30;95.10;;;;;;5012435;28;20033;-64
2022/07/06 11:19:13;;;;;;;4.60;3.87;;;22.30;96.20;;;;;;5011634;28;20561;-63
2022/07/06 11:21:51;;;;;;;11.73;3.90;;;22.20;95.30;;;;;;5013359;28;20080;-63
2022/07/06 11:24:22;;;;;;;5.50;3.78;;;22.00;94.50;;;;;;5012517;28;20409;-63
2022/07/06 11:26:50;;;;;;;6.72;4.15;;;22.10;95.70;;;;;;5013043;28;20389;-63
2022/07/06 11:29:17;;;;;;;4.43;3.72;;;22.20;96.40;;;;;;5012346;28;20065;-63
2022/07/06 11:31:46;;;;;;;8.60;4.00;;;22.90;98.70;;;;;;5013074;28;20381;-63
2022/07/06 11:34:17;;;;;;;8.23;3.58;;;23.80;96.80;;;;;;5010929;28;20074;-63
2022/07/06 11:36:43;;;;;;;7.75;4.00;;;23.80;94.60;;;;;;5013413;28;20037;-63
2022/07/06 11:39:09;;;;;;;6.28;4.03;;;23.70;93.70;;;;;;5011225;28;20030;-64
2022/07/06 11:41:36;;;;;;;7.55;3.92;;;23.90;93.80;;;;;;5012905;28;20463;-63
2022/07/06 11:44:03;;;;;;;8.80;3.95;;;23.70;90.30;;;;;;5012061;28;20423;-63
2022/07/06 11:46:36;;;;;;;8.50;3.83;;;23.40;93.20;;;;;;5012958;28;20030;-63
2022/07/06 11:49:04;;;;;;;8.45;4.15;;;23.30;93.00;;;;;;5011989;28;20470;-63
2022/07/06 11:51:32;;;;;;;9.02;3.75;;;23.10;94.60;;;;;;5012786;28;20147;-63
2022/07/06 11:54:00;;;;;;;4.95;3.50;;;23.00;93.30;;;;;;5010950;28;20046;-63
2022/07/06 11:56:27;;;;;;;5.30;3.75;;;23.10;95.30;;;;;;5011994;28;20124;-63
2022/07/06 11:58:55;;;;;;;5.72;3.53;;;23.50;94.10;;;;;;5012325;28;20037;-63
2022/07/06 12:01:23;;;;;;;7.80;3.85;;;23.70;94.10;;;;;;5012016;28;20076;-63
2022/07/06 12:03:50;;;;;;;8.65;3.20;;;24.00;91.30;;;;;;5012584;28;20041;-64
2022/07/06 12:06:20;;;;;;;5.95;3.50;;;24.10;91.60;;;;;;5011424;28;20623;-63
2022/07/06 12:08:57;;;;;;;6.53;3.30;;;23.90;90.30;;;;;;5011549;28;20036;-63
2022/07/06 12:11:24;;;;;;;4.38;2.92;;;23.70;93.40;;;;;;5010430;28;20084;-63
2022/07/06 12:13:52;;;;;;;5.47;2.72;;;24.10;88.00;;;;;;5012403;28;20034;-64
2022/07/06 12:16:19;;;;;;;4.00;3.00;;;24.30;90.10;;;;;;5011591;28;20101;-64
2022/07/06 12:18:47;;;;;;;5.72;3.20;;;24.40;90.40;;;;;;5012192;28;20044;-64
2022/07/06 12:21:20;;;;;;;5.10;3.05;;;24.20;83.90;;;;;;5011032;28;20459;-63
2022/07/06 12:23:48;;;;;;;4.68;2.90;;;24.20;91.00;;;;;;5012187;28;20033;-62
2022/07/06 12:26:16;;;;;;;5.10;3.28;;;24.50;87.50;;;;;;5010639;28;20069;-65
2022/07/06 12:28:46;;;;;;;5.70;2.90;;;24.70;87.00;;;;;;5011946;28;20030;-63
2022/07/06 12:31:30;;;;;;;;;;;24.60;90.10;;;;;;5011981;28;20120;-63
2022/07/06 12:33:57;;;;;;;13.38;3.25;;;24.40;87.10;;;;;;5011360;28;19905;-63
2022/07/06 12:36:22;;;;;;;5.30;3.30;;;24.20;92.80;;;;;;5011816;28;20037;-63
2022/07/06 12:38:48;;;;;;;8.18;2.80;;;24.40;87.60;;;;;;5010921;28;20038;-63
2022/07/06 12:41:27;;;;;;;5.30;3.17;;;24.30;85.80;;;;;;5010794;28;20128;-63
2022/07/06 12:44:09;;;;;;;4.28;2.67;;;24.40;87.70;;;;;;5011428;28;20030;-64
2022/07/06 12:46:38;;;;;;;10.15;3.00;;;24.50;83.00;;;;;;5011655;28;20030;-63
2022/07/06 12:49:23;;;;;;;4.70;2.95;;;24.80;87.50;;;;;;5007922;28;20113;-64
2022/07/06 12:51:53;;;;;;;5.80;2.70;;;25.00;81.40;;;;;;5011907;28;20398;-63